Time;durP1;ratioP1;P1;durP2;ratioP2;P2;SDS_P1;SDS_P2;PMS_P1;PMS_P2;Temp;Humidity;BMP_temperature;BMP_pressure;BME280_temperature;BME280_humidity;BME280_pressure;Samples;Min_cycle;Max_cycle;Signal;HPM_P1;HPM_P2
2023/01/27 00:00:15;;;;;;;19.52;6.72;;;;;;;;;;4958478;28;20033;-84
2023/01/27 00:02:41;;;;;;;23.75;7.40;;;;;;;;;;4965643;28;20038;-84
2023/01/27 00:05:09;;;;;;;19.10;7.38;;;;;;;;;;4951873;28;20038;-83
2023/01/27 00:07:35;;;;;;;15.98;5.90;;;;;;;;;;4940032;28;20057;-83
2023/01/27 00:10:00;;;;;;;18.10;6.40;;;;;;;;;;4951839;28;20057;-83
2023/01/27 00:15:12;;;;;;;15.77;6.50;;;;;;;;;;4966091;28;20527;-84
2023/01/27 00:17:37;;;;;;;16.15;6.22;;;;;;;;;;4978960;28;20417;-84
2023/01/27 00:20:04;;;;;;;18.13;7.00;;;;;;;;;;4971175;28;20037;-84
2023/01/27 00:25:14;;;;;;;20.00;6.45;;;;;;;;;;4963513;28;20041;-84
2023/01/27 00:27:40;;;;;;;13.98;5.63;;;;;;;;;;4987519;28;20040;-84
2023/01/27 00:30:06;;;;;;;11.60;5.38;;;;;;;;;;5060216;28;20033;-84
2023/01/27 00:35:15;;;;;;;15.60;5.95;;;;;;;;;;5041097;28;20504;-84
2023/01/27 00:37:44;;;;;;;12.20;5.72;;;;;;;;;;5058230;28;20033;-84
2023/01/27 00:40:11;;;;;;;11.98;5.32;;;;;;;;;;5043039;28;20522;-84
2023/01/27 00:42:37;;;;;;;12.02;5.05;;;;;;;;;;5033461;28;20061;-84
2023/01/27 00:47:47;;;;;;;13.48;4.90;;;;;;;;;;5031291;28;20517;-84
2023/01/27 00:50:13;;;;;;;12.63;5.70;;;;;;;;;;5025252;28;21329;-84
2023/01/27 00:52:39;;;;;;;11.40;4.53;;;;;;;;;;5051091;28;20040;-84
2023/01/27 00:55:05;;;;;;;7.75;3.95;;;;;;;;;;5041855;28;20036;-84
2023/01/27 00:57:30;;;;;;;9.05;4.10;;;;;;;;;;5015794;28;20033;-84
2023/01/27 00:59:56;;;;;;;10.18;4.63;;;;;;;;;;5057655;28;20040;-83
2023/01/27 01:02:21;;;;;;;9.63;4.50;;;;;;;;;;5026536;28;20047;-85
2023/01/27 01:04:47;;;;;;;13.60;4.93;;;;;;;;;;5018388;28;20908;-84
2023/01/27 01:07:12;;;;;;;8.98;4.60;;;;;;;;;;5049577;28;20106;-84
2023/01/27 01:09:38;;;;;;;9.90;4.57;;;;;;;;;;5016690;28;20033;-84
2023/01/27 01:12:03;;;;;;;9.07;4.25;;;;;;;;;;5048689;28;20106;-84
2023/01/27 01:14:29;;;;;;;9.30;5.05;;;;;;;;;;5031791;28;20056;-84
2023/01/27 01:16:57;;;;;;;9.40;4.20;;;;;;;;;;5016225;28;20032;-84
2023/01/27 01:19:23;;;;;;;9.95;4.70;;;;;;;;;;5014733;28;20033;-85
2023/01/27 01:21:48;;;;;;;10.25;4.68;;;;;;;;;;5013743;28;20370;-85
2023/01/27 01:24:14;;;;;;;10.00;4.78;;;;;;;;;;5017517;28;20044;-84
2023/01/27 01:26:39;;;;;;;11.05;5.05;;;;;;;;;;5019322;28;20516;-83
2023/01/27 01:29:05;;;;;;;12.30;5.40;;;;;;;;;;5042188;28;20118;-85
2023/01/27 01:31:30;;;;;;;11.10;5.70;;;;;;;;;;5054899;28;20032;-84
2023/01/27 01:33:55;;;;;;;12.57;4.93;;;;;;;;;;5066095;28;20029;-84
2023/01/27 01:36:21;;;;;;;11.68;5.35;;;;;;;;;;5059180;28;20037;-83
2023/01/27 01:38:47;;;;;;;13.93;5.82;;;;;;;;;;5015743;28;20035;-84
2023/01/27 01:41:15;;;;;;;15.82;5.78;;;;;;;;;;5032272;28;20037;-84
2023/01/27 01:43:41;;;;;;;12.50;5.70;;;;;;;;;;5026571;28;20453;-84
2023/01/27 01:46:08;;;;;;;11.07;4.78;;;;;;;;;;5016787;28;20024;-84
2023/01/27 01:48:52;;;;;;;;;;;;;;;;;;5043594;28;20029;-83
2023/01/27 01:51:31;;;;;;;9.05;4.47;;;;;;;;;;5046799;28;20019;-83
2023/01/27 01:54:25;;;;;;;10.68;4.15;;;;;;;;;;5030511;28;20435;-83
2023/01/27 01:57:42;;;;;;;9.00;3.80;;;;;;;;;;5046101;28;20032;-83
2023/01/27 02:00:09;;;;;;;11.32;4.43;;;;;;;;;;5044711;28;20193;-83
2023/01/27 02:02:35;;;;;;;9.70;4.32;;;;;;;;;;5025541;28;20373;-84
2023/01/27 02:05:08;;;;;;;8.65;4.28;;;;;;;;;;5033401;28;20061;-83
2023/01/27 02:07:35;;;;;;;8.95;3.75;;;;;;;;;;5035260;28;20064;-84
2023/01/27 02:10:00;;;;;;;13.10;4.90;;;;;;;;;;5030218;28;20036;-83
2023/01/27 02:12:26;;;;;;;10.95;4.45;;;;;;;;;;5046585;28;20032;-83
2023/01/27 02:14:52;;;;;;;10.07;4.65;;;;;;;;;;5036452;28;20044;-84
2023/01/27 02:17:18;;;;;;;10.52;4.63;;;;;;;;;;5030380;28;20040;-84
2023/01/27 02:20:07;;;;;;;13.32;5.93;;;;;;;;;;5038851;28;20450;-84
2023/01/27 02:22:40;;;;;;;9.25;4.43;;;;;;;;;;5029898;28;20044;-84
2023/01/27 02:25:36;;;;;;;11.80;4.97;;;;;;;;;;5024469;28;20772;-84
2023/01/27 02:28:07;;;;;;;10.40;4.65;;;;;;;;;;5012285;28;20595;-82
2023/01/27 02:30:33;;;;;;;12.93;5.35;;;;;;;;;;5022956;28;20039;-83
2023/01/27 02:32:58;;;;;;;11.98;4.95;;;;;;;;;;5016084;28;20028;-83
2023/01/27 02:35:30;;;;;;;10.38;4.53;;;;;;;;;;5038617;28;20119;-83
2023/01/27 02:37:56;;;;;;;12.77;5.35;;;;;;;;;;5056628;28;20044;-83
2023/01/27 02:40:22;;;;;;;14.25;5.35;;;;;;;;;;5047871;28;20033;-84
2023/01/27 02:42:48;;;;;;;12.65;5.03;;;;;;;;;;5045182;28;20060;-84
2023/01/27 02:45:13;;;;;;;12.07;5.20;;;;;;;;;;5035032;28;20080;-83
2023/01/27 02:47:39;;;;;;;15.65;5.82;;;;;;;;;;5029925;28;20461;-83
2023/01/27 02:50:05;;;;;;;17.20;6.07;;;;;;;;;;5041388;28;20037;-84
2023/01/27 02:52:30;;;;;;;15.18;5.75;;;;;;;;;;5054782;28;20040;-83
2023/01/27 02:54:56;;;;;;;11.82;5.25;;;;;;;;;;5054013;28;20033;-82
2023/01/27 02:57:22;;;;;;;15.52;5.93;;;;;;;;;;5051770;28;20029;-83
2023/01/27 02:59:47;;;;;;;12.68;5.20;;;;;;;;;;5039401;28;20041;-83
2023/01/27 03:02:13;;;;;;;11.45;5.15;;;;;;;;;;5044040;28;20127;-83
2023/01/27 03:04:39;;;;;;;11.77;5.28;;;;;;;;;;5026845;28;20549;-84
2023/01/27 03:07:25;;;;;;;10.27;4.35;;;;;;;;;;5033580;28;20037;-84
2023/01/27 03:09:50;;;;;;;11.15;4.65;;;;;;;;;;5020003;28;20097;-83
2023/01/27 03:12:18;;;;;;;10.55;4.65;;;;;;;;;;4985652;28;20042;-84
2023/01/27 03:20:12;;;;;;;10.73;4.75;;;;;;;;;;4987637;28;20069;-84
2023/01/27 03:22:37;;;;;;;10.95;4.63;;;;;;;;;;4977847;28;20062;-85
2023/01/27 03:25:03;;;;;;;12.80;4.97;;;;;;;;;;4983085;28;20117;-85
2023/01/27 03:27:28;;;;;;;11.60;4.95;;;;;;;;;;5020683;28;20128;-84
2023/01/27 03:29:54;;;;;;;13.90;5.30;;;;;;;;;;4992121;28;20057;-83
2023/01/27 03:32:19;;;;;;;10.88;4.55;;;;;;;;;;4970840;28;20065;-84
2023/01/27 03:34:45;;;;;;;11.82;4.90;;;;;;;;;;5008167;28;20042;-84
2023/01/27 03:48:06;;;;;;;9.77;4.72;;;;;;;;;;5034212;28;20052;-84
2023/01/27 03:50:42;;;;;;;11.18;4.63;;;;;;;;;;5037277;28;20044;-83
2023/01/27 03:53:13;;;;;;;11.07;4.60;;;;;;;;;;5035248;28;20029;-84
2023/01/27 03:55:38;;;;;;;11.40;4.82;;;;;;;;;;5043628;28;20395;-84
2023/01/27 03:58:13;;;;;;;11.15;4.72;;;;;;;;;;5026655;28;20036;-83
2023/01/27 04:00:39;;;;;;;11.10;4.80;;;;;;;;;;5041179;28;20495;-83
2023/01/27 04:08:32;;;;;;;12.18;5.30;;;;;;;;;;5038702;28;20059;-84
2023/01/27 04:13:47;;;;;;;11.38;5.18;;;;;;;;;;5044905;28;20589;-84
2023/01/27 04:16:12;;;;;;;14.30;5.60;;;;;;;;;;5044304;28;20032;-84
2023/01/27 04:18:37;;;;;;;15.63;5.43;;;;;;;;;;5027031;28;20033;-84
2023/01/27 04:21:03;;;;;;;13.93;5.97;;;;;;;;;;5020858;28;20056;-85
2023/01/27 04:23:49;;;;;;;13.32;5.82;;;;;;;;;;5049557;28;20112;-85
2023/01/27 04:26:14;;;;;;;15.75;5.80;;;;;;;;;;5017402;28;20041;-84
2023/01/27 04:28:39;;;;;;;11.73;5.10;;;;;;;;;;4985464;28;20128;-85
2023/01/27 04:31:05;;;;;;;11.80;5.65;;;;;;;;;;4967372;28;20041;-84
2023/01/27 04:33:30;;;;;;;12.55;5.32;;;;;;;;;;4995834;28;20044;-84
2023/01/27 04:35:56;;;;;;;12.98;5.53;;;;;;;;;;4967994;28;20048;-83
2023/01/27 04:38:21;;;;;;;13.32;5.32;;;;;;;;;;4985606;28;20037;-84
2023/01/27 04:40:47;;;;;;;13.65;5.25;;;;;;;;;;4968165;28;20096;-84
2023/01/27 04:43:12;;;;;;;11.32;5.25;;;;;;;;;;4984777;28;20073;-84
2023/01/27 04:45:38;;;;;;;13.07;5.75;;;;;;;;;;4984370;28;20649;-84
2023/01/27 04:48:05;;;;;;;16.17;6.25;;;;;;;;;;4985029;28;20582;-81
2023/01/27 04:50:31;;;;;;;13.93;5.53;;;;;;;;;;4970275;28;20489;-83
2023/01/27 04:52:56;;;;;;;15.57;6.30;;;;;;;;;;4968675;28;20061;-83
2023/01/27 04:55:22;;;;;;;12.75;5.70;;;;;;;;;;4967812;28;20072;-84
2023/01/27 04:57:47;;;;;;;15.30;6.50;;;;;;;;;;4962813;28;20042;-82
2023/01/27 05:00:13;;;;;;;15.25;6.32;;;;;;;;;;4987914;28;20045;-82
2023/01/27 05:02:38;;;;;;;14.13;6.07;;;;;;;;;;4985403;28;20032;-87
2023/01/27 05:05:04;;;;;;;17.23;5.85;;;;;;;;;;5026430;28;20460;-88
2023/01/27 05:07:30;;;;;;;15.63;6.05;;;;;;;;;;5058367;28;20068;-85
2023/01/27 05:09:55;;;;;;;19.13;6.25;;;;;;;;;;5020322;28;20044;-86
2023/01/27 05:12:21;;;;;;;17.45;6.00;;;;;;;;;;5020394;28;20054;-86
2023/01/27 05:14:46;;;;;;;15.82;5.85;;;;;;;;;;5052223;28;20059;-86
2023/01/27 05:17:12;;;;;;;14.25;6.03;;;;;;;;;;5046494;28;20108;-87
2023/01/27 05:19:37;;;;;;;16.83;6.78;;;;;;;;;;5036202;28;20086;-88
2023/01/27 05:22:03;;;;;;;14.85;6.50;;;;;;;;;;5027597;28;20508;-88
2023/01/27 05:24:28;;;;;;;14.13;6.03;;;;;;;;;;5045611;28;20033;-88
2023/01/27 05:26:54;;;;;;;16.38;5.60;;;;;;;;;;5038256;28;20075;-87
2023/01/27 05:29:19;;;;;;;12.48;5.47;;;;;;;;;;5066791;28;20052;-89
2023/01/27 05:31:44;;;;;;;16.17;5.85;;;;;;;;;;5026453;28;20784;-88
2023/01/27 05:34:10;;;;;;;14.63;5.70;;;;;;;;;;5018322;28;20098;-86
2023/01/27 05:36:35;;;;;;;14.32;5.38;;;;;;;;;;5020126;28;20576;-86
2023/01/27 05:39:01;;;;;;;13.55;5.22;;;;;;;;;;5021061;28;20183;-86
2023/01/27 05:41:29;;;;;;;16.05;5.55;;;;;;;;;;5018624;28;20575;-85
2023/01/27 05:43:58;;;;;;;12.45;4.40;;;;;;;;;;5028454;28;20036;-85
2023/01/27 05:46:26;;;;;;;11.45;4.60;;;;;;;;;;5053722;28;20032;-86
2023/01/27 05:48:55;;;;;;;15.45;5.57;;;;;;;;;;5038302;28;20033;-86
2023/01/27 05:51:24;;;;;;;10.60;4.38;;;;;;;;;;4994447;28;20094;-86
2023/01/27 05:53:50;;;;;;;14.25;5.70;;;;;;;;;;5036434;28;20025;-84
2023/01/27 05:56:18;;;;;;;12.10;4.90;;;;;;;;;;5016282;28;20036;-83
2023/01/27 05:58:43;;;;;;;15.10;5.38;;;;;;;;;;5023792;28;20036;-84
2023/01/27 06:01:14;;;;;;;11.02;4.20;;;;;;;;;;5019316;28;20090;-84
2023/01/27 06:03:40;;;;;;;13.85;4.97;;;;;;;;;;5020880;28;20032;-84
2023/01/27 06:06:06;;;;;;;13.00;4.85;;;;;;;;;;5022122;28;20032;-84
2023/01/27 06:08:32;;;;;;;13.35;4.65;;;;;;;;;;5045497;28;20099;-84
2023/01/27 06:10:58;;;;;;;12.13;4.35;;;;;;;;;;5021475;28;20035;-83
2023/01/27 06:13:24;;;;;;;10.15;4.53;;;;;;;;;;5035421;28;20411;-82
2023/01/27 06:15:50;;;;;;;14.77;5.28;;;;;;;;;;5045741;28;20041;-83
2023/01/27 06:18:16;;;;;;;17.15;5.00;;;;;;;;;;5025687;28;20057;-83
2023/01/27 06:20:43;;;;;;;13.57;4.55;;;;;;;;;;5019938;28;20518;-84
2023/01/27 06:23:09;;;;;;;11.32;4.57;;;;;;;;;;5046071;28;20123;-84
2023/01/27 06:25:46;;;;;;;12.80;4.28;;;;;;;;;;5034517;28;20063;-84
2023/01/27 06:28:12;;;;;;;11.45;4.75;;;;;;;;;;5039630;28;20049;-84
2023/01/27 06:30:38;;;;;;;14.07;4.35;;;;;;;;;;5033623;28;20106;-84
2023/01/27 06:33:04;;;;;;;10.25;3.88;;;;;;;;;;5025816;28;20045;-86
2023/01/27 06:35:50;;;;;;;9.95;3.75;;;;;;;;;;5036420;28;20575;-86
2023/01/27 06:38:16;;;;;;;10.57;4.00;;;;;;;;;;4991041;28;20034;-86
2023/01/27 06:40:42;;;;;;;9.63;3.67;;;;;;;;;;4987135;28;20154;-83
2023/01/27 06:43:12;;;;;;;13.38;4.30;;;;;;;;;;4988958;28;20046;-85
2023/01/27 06:45:37;;;;;;;11.48;3.95;;;;;;;;;;4973278;28;20033;-85
2023/01/27 06:48:03;;;;;;;7.95;3.50;;;;;;;;;;4971561;28;20070;-85
2023/01/27 06:50:29;;;;;;;12.05;3.95;;;;;;;;;;4969255;28;20034;-85
2023/01/27 06:53:02;;;;;;;9.30;3.60;;;;;;;;;;4970346;28;20066;-82
2023/01/27 06:55:28;;;;;;;9.98;3.50;;;;;;;;;;4980781;28;20048;-84
2023/01/27 06:57:54;;;;;;;10.80;3.88;;;;;;;;;;4973165;28;20038;-81
2023/01/27 07:00:20;;;;;;;9.88;2.88;;;;;;;;;;4954330;28;20598;-82
2023/01/27 07:02:45;;;;;;;9.63;3.70;;;;;;;;;;4972864;28;20631;-82
2023/01/27 07:05:12;;;;;;;8.43;3.38;;;;;;;;;;4967867;28;20077;-86
2023/01/27 07:07:37;;;;;;;8.68;3.90;;;;;;;;;;4950516;28;20043;-85
2023/01/27 07:10:04;;;;;;;9.07;4.15;;;;;;;;;;4963709;28;20042;-86
2023/01/27 07:12:29;;;;;;;10.20;3.77;;;;;;;;;;4972951;28;20034;-87
2023/01/27 07:14:55;;;;;;;9.85;4.03;;;;;;;;;;5004082;28;20064;-85
2023/01/27 07:17:20;;;;;;;7.88;3.72;;;;;;;;;;5027506;28;20030;-87
2023/01/27 07:19:45;;;;;;;10.15;4.40;;;;;;;;;;5020991;28;20028;-84
2023/01/27 07:22:11;;;;;;;9.65;3.78;;;;;;;;;;5037529;28;20045;-87
2023/01/27 07:24:36;;;;;;;13.45;4.30;;;;;;;;;;5001538;28;20550;-87
2023/01/27 07:27:02;;;;;;;9.55;3.80;;;;;;;;;;5007948;28;20040;-86
2023/01/27 07:29:27;;;;;;;11.57;4.28;;;;;;;;;;5001010;28;20025;-85
2023/01/27 07:31:52;;;;;;;9.73;4.20;;;;;;;;;;5033759;28;20029;-88
2023/01/27 07:34:18;;;;;;;10.60;4.43;;;;;;;;;;5022376;28;20120;-85
2023/01/27 07:36:43;;;;;;;8.68;3.97;;;;;;;;;;5027389;28;20835;-87
2023/01/27 07:39:09;;;;;;;11.52;4.35;;;;;;;;;;5038871;28;20037;-85
2023/01/27 07:41:34;;;;;;;14.75;4.70;;;;;;;;;;5032541;28;20119;-86
2023/01/27 07:43:59;;;;;;;10.48;3.92;;;;;;;;;;5010594;28;20037;-86
2023/01/27 07:46:25;;;;;;;12.65;4.50;;;;;;;;;;5007473;28;20607;-83
2023/01/27 07:48:50;;;;;;;14.10;4.95;;;;;;;;;;5021156;28;20103;-83
2023/01/27 07:51:16;;;;;;;13.02;5.53;;;;;;;;;;5020638;28;20033;-86
2023/01/27 07:53:41;;;;;;;14.00;4.72;;;;;;;;;;5007966;28;20037;-83
2023/01/27 07:56:13;;;;;;;14.38;4.88;;;;;;;;;;5043505;28;20052;-83
2023/01/27 07:58:39;;;;;;;14.73;5.72;;;;;;;;;;5020328;28;20531;-83
2023/01/27 08:01:06;;;;;;;13.98;5.45;;;;;;;;;;5023949;28;20068;-83
2023/01/27 08:03:32;;;;;;;13.88;5.45;;;;;;;;;;5026437;28;20413;-84
2023/01/27 08:05:57;;;;;;;12.45;5.22;;;;;;;;;;4999702;28;20065;-86
2023/01/27 08:08:22;;;;;;;13.05;5.20;;;;;;;;;;5008189;28;20040;-85
2023/01/27 08:10:50;;;;;;;14.68;5.15;;;;;;;;;;5016989;28;20042;-84
2023/01/27 08:13:15;;;;;;;14.80;5.30;;;;;;;;;;5030307;28;20492;-83
2023/01/27 08:15:44;;;;;;;16.35;5.72;;;;;;;;;;5020174;28;20041;-88
2023/01/27 08:18:09;;;;;;;12.77;5.18;;;;;;;;;;5014846;28;20437;-87
2023/01/27 08:20:35;;;;;;;15.27;5.63;;;;;;;;;;5032331;28;20092;-87
2023/01/27 08:23:00;;;;;;;14.98;5.78;;;;;;;;;;5015192;28;20041;-86
2023/01/27 08:25:26;;;;;;;11.18;4.93;;;;;;;;;;5031512;28;20037;-81
2023/01/27 08:27:52;;;;;;;15.75;5.43;;;;;;;;;;5034225;28;20643;-86
2023/01/27 08:30:18;;;;;;;14.27;5.55;;;;;;;;;;5027465;28;20029;-85
2023/01/27 08:32:44;;;;;;;15.25;5.63;;;;;;;;;;5019591;28;20836;-84
2023/01/27 08:35:09;;;;;;;13.82;5.25;;;;;;;;;;5034919;28;20046;-84
2023/01/27 08:37:35;;;;;;;14.20;6.03;;;;;;;;;;5033815;28;20561;-85
2023/01/27 08:40:20;;;;;;;13.93;6.00;;;;;;;;;;5024838;28;20889;-85
2023/01/27 08:42:49;;;;;;;15.45;5.80;;;;;;;;;;4994321;28;20041;-86
2023/01/27 08:45:14;;;;;;;12.85;6.10;;;;;;;;;;4985504;28;20600;-84
2023/01/27 08:47:39;;;;;;;13.18;5.63;;;;;;;;;;4984046;28;20038;-85
2023/01/27 08:50:06;;;;;;;13.85;5.40;;;;;;;;;;4997572;28;20370;-84
2023/01/27 08:52:31;;;;;;;13.57;5.80;;;;;;;;;;4975592;28;20513;-86
2023/01/27 08:54:57;;;;;;;17.13;6.47;;;;;;;;;;4975138;28;20044;-86
2023/01/27 08:57:23;;;;;;;11.80;6.05;;;;;;;;;;5009202;28;20034;-85
2023/01/27 08:59:49;;;;;;;11.27;5.88;;;;;;;;;;4991730;28;20034;-85
2023/01/27 09:02:15;;;;;;;12.32;5.65;;;;;;;;;;4974721;28;20192;-84
2023/01/27 09:04:43;;;;;;;12.77;6.10;;;;;;;;;;4982773;28;20045;-84
2023/01/27 09:07:08;;;;;;;13.15;5.68;;;;;;;;;;4972952;28;20046;-85
2023/01/27 09:09:34;;;;;;;12.10;5.57;;;;;;;;;;4980518;28;20038;-83
2023/01/27 09:11:59;;;;;;;11.27;5.32;;;;;;;;;;4996055;28;20044;-83
2023/01/27 09:14:25;;;;;;;10.18;4.78;;;;;;;;;;4985166;28;20496;-85
2023/01/27 09:16:50;;;;;;;11.75;4.80;;;;;;;;;;5003312;28;20030;-84
2023/01/27 09:19:15;;;;;;;15.02;5.57;;;;;;;;;;4991317;28;20119;-86
2023/01/27 09:21:41;;;;;;;10.48;5.50;;;;;;;;;;5045508;28;20083;-86
2023/01/27 09:24:06;;;;;;;11.68;5.22;;;;;;;;;;5020750;28;20408;-87
2023/01/27 09:26:31;;;;;;;10.38;5.45;;;;;;;;;;5018632;28;20024;-84
2023/01/27 09:28:57;;;;;;;8.80;4.90;;;;;;;;;;5037183;28;20106;-83
2023/01/27 09:31:22;;;;;;;9.13;4.85;;;;;;;;;;5029839;28;20116;-87
2023/01/27 09:33:48;;;;;;;9.35;4.97;;;;;;;;;;5030631;28;20051;-85
2023/01/27 09:36:16;;;;;;;10.85;4.93;;;;;;;;;;5016945;28;20045;-87
2023/01/27 09:38:48;;;;;;;8.55;4.32;;;;;;;;;;5033019;28;20063;-86
2023/01/27 09:41:28;;;;;;;8.98;4.47;;;;;;;;;;5033203;28;20155;-87
2023/01/27 09:44:04;;;;;;;11.13;4.88;;;;;;;;;;5022040;28;20044;-87
2023/01/27 09:46:34;;;;;;;10.45;4.20;;;;;;;;;;5028486;28;20030;-84
2023/01/27 09:49:25;;;;;;;8.80;4.55;;;;;;;;;;5016467;28;20404;-84
2023/01/27 09:51:50;;;;;;;7.78;4.20;;;;;;;;;;4994355;28;20458;-84
2023/01/27 09:54:15;;;;;;;7.65;3.95;;;;;;;;;;5034968;28;20064;-84
2023/01/27 09:57:04;;;;;;;9.38;4.55;;;;;;;;;;5047194;28;20037;-84
2023/01/27 09:59:44;;;;;;;7.07;3.97;;;;;;;;;;5032818;28;20041;-84
2023/01/27 10:02:33;;;;;;;7.28;3.90;;;;;;;;;;5054439;28;20052;-84
2023/01/27 10:05:17;;;;;;;7.63;4.00;;;;;;;;;;5053566;28;20040;-85
2023/01/27 10:08:04;;;;;;;8.70;4.50;;;;;;;;;;5053674;28;20044;-84
2023/01/27 10:11:15;;;;;;;7.15;3.50;;;;;;;;;;5033317;28;20385;-87
2023/01/27 10:14:15;;;;;;;11.38;4.15;;;;;;;;;;4989749;28;20038;-85
2023/01/27 10:17:00;;;;;;;8.02;4.22;;;;;;;;;;5038841;28;20037;-85
2023/01/27 10:19:28;;;;;;;9.05;4.70;;;;;;;;;;5055162;28;20073;-87
2023/01/27 10:22:04;;;;;;;8.52;4.43;;;;;;;;;;5054090;28;20040;-86
2023/01/27 10:25:10;;;;;;;9.48;4.88;;;;;;;;;;5039463;28;20044;-87
2023/01/27 10:27:37;;;;;;;8.15;4.47;;;;;;;;;;5025464;28;20515;-86
2023/01/27 10:30:20;;;;;;;9.40;4.97;;;;;;;;;;5059154;28;20028;-88
2023/01/27 10:32:57;;;;;;;9.20;5.00;;;;;;;;;;5040291;28;20088;-87
2023/01/27 10:35:26;;;;;;;9.63;5.10;;;;;;;;;;5061463;28;20047;-89
2023/01/27 10:38:35;;;;;;;9.15;4.85;;;;;;;;;;5059328;28;20047;-90
2023/01/27 10:41:25;;;;;;;12.45;5.57;;;;;;;;;;5052116;28;20032;-87
2023/01/27 10:44:11;;;;;;;7.80;4.03;;;;;;;;;;5054676;28;20540;-87
2023/01/27 10:46:54;;;;;;;10.43;5.07;;;;;;;;;;5035409;28;20040;-87
2023/01/27 10:49:42;;;;;;;8.50;4.82;;;;;;;;;;5053880;28;20067;-89
2023/01/27 10:52:12;;;;;;;7.50;4.30;;;;;;;;;;5047962;28;20044;-87
2023/01/27 10:54:47;;;;;;;8.20;4.40;;;;;;;;;;5049451;28;20056;-88
2023/01/27 10:57:24;;;;;;;8.90;4.82;;;;;;;;;;5022943;28;20036;-87
2023/01/27 11:00:18;;;;;;;9.20;5.00;;;;;;;;;;5022178;28;20044;-86
2023/01/27 11:02:56;;;;;;;8.23;4.35;;;;;;;;;;5047484;28;20127;-86
2023/01/27 11:05:44;;;;;;;8.18;4.75;;;;;;;;;;5066186;28;20599;-89
2023/01/27 11:08:14;;;;;;;7.88;4.90;;;;;;;;;;5052125;28;20436;-84
2023/01/27 11:11:42;;;;;;;8.30;5.00;;;;;;;;;;5050858;28;20029;-87
2023/01/27 11:13:30;;;;;;;7.03;4.40;;;;;;;;;;5053482;28;20039;-86
2023/01/27 11:15:56;;;;;;;15.18;6.35;;;;;;;;;;5042446;28;20025;-88
2023/01/27 11:18:30;;;;;;;9.35;5.00;;;;;;;;;;5051522;28;20052;-87
2023/01/27 11:21:02;;;;;;;6.97;4.18;;;;;;;;;;5041638;28;20060;-86
2023/01/27 11:23:34;;;;;;;7.32;4.28;;;;;;;;;;5028323;28;20040;-87
2023/01/27 11:26:26;;;;;;;8.98;4.15;;;;;;;;;;5046396;28;20533;-88
2023/01/27 11:29:17;;;;;;;7.47;3.67;;;;;;;;;;5048651;28;20119;-88
2023/01/27 11:32:25;;;;;;;11.52;4.50;;;;;;;;;;5027319;28;20615;-89
2023/01/27 11:35:00;;;;;;;5.82;3.20;;;;;;;;;;5006728;28;20496;-87
2023/01/27 11:37:36;;;;;;;5.68;3.10;;;;;;;;;;5051845;28;20028;-88
2023/01/27 11:40:04;;;;;;;5.35;3.10;;;;;;;;;;5020412;28;20551;-87
2023/01/27 11:42:32;;;;;;;6.32;3.42;;;;;;;;;;5018143;28;20122;-89
2023/01/27 11:44:58;;;;;;;6.65;3.20;;;;;;;;;;5021767;28;20163;-88
2023/01/27 11:47:29;;;;;;;6.55;3.08;;;;;;;;;;5026110;28;20584;-89
2023/01/27 11:49:55;;;;;;;6.88;2.88;;;;;;;;;;5059596;28;20371;-87
2023/01/27 11:52:25;;;;;;;4.55;2.67;;;;;;;;;;5043922;28;20382;-89
2023/01/27 11:55:14;;;;;;;7.13;3.38;;;;;;;;;;5036121;28;20032;-88
2023/01/27 11:57:59;;;;;;;7.95;3.13;;;;;;;;;;5043547;28;20467;-90
2023/01/27 12:00:31;;;;;;;4.53;2.70;;;;;;;;;;5039041;28;20942;-88
2023/01/27 12:03:08;;;;;;;7.57;3.63;;;;;;;;;;5022821;28;20039;-87
2023/01/27 12:05:34;;;;;;;;;;;;;;;;;;5025913;28;20558;-87
2023/01/27 12:08:06;;;;;;;5.43;2.70;;;;;;;;;;5032742;28;19920;-87
2023/01/27 12:10:33;;;;;;;4.88;2.55;;;;;;;;;;5024894;28;20032;-88
2023/01/27 12:13:17;;;;;;;8.88;3.33;;;;;;;;;;5056451;28;20033;-88
2023/01/27 12:15:50;;;;;;;6.60;2.88;;;;;;;;;;5061788;28;20028;-89
2023/01/27 12:18:16;;;;;;;5.72;3.03;;;;;;;;;;5062189;28;20675;-88
2023/01/27 12:20:43;;;;;;;5.25;2.58;;;;;;;;;;5043651;28;20036;-90
2023/01/27 12:23:17;;;;;;;4.65;2.83;;;;;;;;;;5038327;28;20037;-89
2023/01/27 12:25:46;;;;;;;4.93;2.67;;;;;;;;;;5068918;28;20047;-88
2023/01/27 12:28:23;;;;;;;4.75;2.40;;;;;;;;;;5043487;28;20048;-87
2023/01/27 12:30:50;;;;;;;5.50;2.80;;;;;;;;;;5035161;28;20032;-87
2023/01/27 12:33:23;;;;;;;5.63;2.40;;;;;;;;;;5045582;28;20076;-88
2023/01/27 12:35:49;;;;;;;6.30;3.20;;;;;;;;;;5017282;28;20400;-87
2023/01/27 12:38:22;;;;;;;6.35;3.42;;;;;;;;;;5021577;28;20040;-87
2023/01/27 12:40:54;;;;;;;6.72;3.15;;;;;;;;;;5048868;28;20036;-87
2023/01/27 12:43:19;;;;;;;11.10;3.95;;;;;;;;;;5033974;28;20440;-88
2023/01/27 12:46:21;;;;;;;9.50;3.67;;;;;;;;;;5041511;28;20048;-87
2023/01/27 12:48:52;;;;;;;7.35;4.03;;;;;;;;;;5037446;28;20033;-88
2023/01/27 12:51:23;;;;;;;7.22;3.63;;;;;;;;;;5044488;28;20040;-91
2023/01/27 12:53:50;;;;;;;6.65;4.10;;;;;;;;;;5038388;28;20039;-87
2023/01/27 12:56:19;;;;;;;8.48;3.53;;;;;;;;;;5035670;28;20495;-88
2023/01/27 12:58:53;;;;;;;9.25;3.55;;;;;;;;;;5043651;28;20188;-89
2023/01/27 13:01:19;;;;;;;9.27;4.05;;;;;;;;;;5066090;28;20491;-88
2023/01/27 13:03:48;;;;;;;8.32;3.80;;;;;;;;;;5049095;28;20041;-88
2023/01/27 13:06:19;;;;;;;7.95;3.88;;;;;;;;;;5037840;28;20186;-88
2023/01/27 13:08:46;;;;;;;7.70;3.70;;;;;;;;;;5027450;28;20440;-89
2023/01/27 13:11:11;;;;;;;7.63;3.92;;;;;;;;;;5035326;28;20056;-89
2023/01/27 13:13:47;;;;;;;9.43;3.30;;;;;;;;;;5048616;28;20041;-89
2023/01/27 13:16:31;;;;;;;9.30;4.15;;;;;;;;;;5063834;28;20105;-89
2023/01/27 13:18:58;;;;;;;7.85;3.50;;;;;;;;;;5040195;28;20526;-88
2023/01/27 13:21:29;;;;;;;9.18;3.63;;;;;;;;;;5035462;28;20040;-90
2023/01/27 13:23:55;;;;;;;8.25;3.40;;;;;;;;;;5041029;28;20037;-89
2023/01/27 13:26:25;;;;;;;8.15;3.28;;;;;;;;;;5044410;28;20033;-89
2023/01/27 13:29:08;;;;;;;5.55;3.05;;;;;;;;;;5025765;28;20140;-88
2023/01/27 13:32:01;;;;;;;8.23;3.00;;;;;;;;;;5048173;28;20511;-90
2023/01/27 13:34:46;;;;;;;7.57;3.67;;;;;;;;;;5048521;28;20105;-87
2023/01/27 13:38:02;;;;;;;8.68;3.30;;;;;;;;;;5046044;28;20045;-90
2023/01/27 13:40:45;;;;;;;9.73;3.50;;;;;;;;;;5004307;28;20484;-88
2023/01/27 13:43:20;;;;;;;7.93;2.65;;;;;;;;;;5016623;28;20041;-89
2023/01/27 13:46:07;;;;;;;6.95;2.45;;;;;;;;;;5041450;28;20089;-86
2023/01/27 13:48:33;;;;;;;5.97;2.60;;;;;;;;;;5041360;28;20500;-87
2023/01/27 13:51:09;;;;;;;6.85;3.03;;;;;;;;;;5055092;28;20091;-89
2023/01/27 13:53:36;;;;;;;5.75;2.80;;;;;;;;;;5052561;28;20040;-87
2023/01/27 13:56:26;;;;;;;5.38;3.05;;;;;;;;;;5040044;28;20037;-88
2023/01/27 13:58:58;;;;;;;5.15;3.25;;;;;;;;;;5047130;28;20531;-90
2023/01/27 14:01:24;;;;;;;7.63;2.78;;;;;;;;;;5046586;28;20433;-87
2023/01/27 14:04:27;;;;;;;5.53;2.50;;;;;;;;;;5015640;28;20519;-85
2023/01/27 14:07:07;;;;;;;6.53;2.70;;;;;;;;;;5049416;28;20033;-88
2023/01/27 14:10:03;;;;;;;7.95;2.92;;;;;;;;;;5037076;28;20123;-80
2023/01/27 14:12:49;;;;;;;5.45;2.60;;;;;;;;;;5067854;28;20033;-80
2023/01/27 14:15:22;;;;;;;7.90;3.10;;;;;;;;;;5035634;28;20032;-88
2023/01/27 14:18:08;;;;;;;8.80;3.58;;;;;;;;;;5061986;28;20214;-86
2023/01/27 14:20:49;;;;;;;5.80;2.83;;;;;;;;;;5033866;28;20029;-87
2023/01/27 14:23:42;;;;;;;7.30;2.65;;;;;;;;;;5047334;28;20042;-87
2023/01/27 14:26:10;;;;;;;5.38;2.78;;;;;;;;;;5030193;28;20123;-87
2023/01/27 14:29:00;;;;;;;5.03;2.53;;;;;;;;;;5067073;28;20571;-89
2023/01/27 14:31:43;;;;;;;7.63;3.35;;;;;;;;;;5040876;28;20037;-86
2023/01/27 14:34:23;;;;;;;5.88;2.88;;;;;;;;;;5051648;28;20159;-87
2023/01/27 14:36:58;;;;;;;7.68;2.88;;;;;;;;;;5029871;28;20139;-86
2023/01/27 14:39:43;;;;;;;11.13;4.78;;;;;;;;;;5034261;28;20036;-86
2023/01/27 14:42:20;;;;;;;7.10;3.15;;;;;;;;;;5035529;28;20032;-86
2023/01/27 14:45:01;;;;;;;12.85;4.32;;;;;;;;;;5051865;28;20041;-86
2023/01/27 14:47:50;;;;;;;5.80;2.65;;;;;;;;;;5049898;28;20582;-89
2023/01/27 14:50:37;;;;;;;6.57;2.40;;;;;;;;;;5043264;28;20067;-87
2023/01/27 14:53:35;;;;;;;7.03;2.10;;;;;;;;;;5033860;28;20032;-87
2023/01/27 14:56:34;;;;;;;3.80;1.85;;;;;;;;;;5014167;28;20056;-87
2023/01/27 15:00:03;;;;;;;7.80;2.47;;;;;;;;;;5044205;28;20049;-87
2023/01/27 15:02:47;;;;;;;8.05;2.85;;;;;;;;;;4985620;28;20049;-84
2023/01/27 15:05:54;;;;;;;4.22;1.63;;;;;;;;;;5022476;28;20037;-86
2023/01/27 15:08:33;;;;;;;4.88;1.70;;;;;;;;;;5017818;28;20155;-87
2023/01/27 15:11:30;;;;;;;3.45;1.20;;;;;;;;;;5021901;28;20455;-84
2023/01/27 15:14:34;;;;;;;5.18;1.83;;;;;;;;;;5038812;28;20525;-84
2023/01/27 15:17:30;;;;;;;5.05;1.50;;;;;;;;;;5048923;28;20032;-85
2023/01/27 15:20:05;;;;;;;3.67;1.60;;;;;;;;;;5021645;28;20127;-83
2023/01/27 15:22:52;;;;;;;6.13;1.73;;;;;;;;;;5031341;28;20092;-88
2023/01/27 15:25:49;;;;;;;5.10;1.70;;;;;;;;;;5015862;28;20051;-87
2023/01/27 15:28:18;;;;;;;6.10;1.70;;;;;;;;;;5026435;28;20055;-86
2023/01/27 15:31:07;;;;;;;3.67;1.35;;;;;;;;;;5020332;28;20045;-85
2023/01/27 15:33:58;;;;;;;3.40;1.27;;;;;;;;;;5045616;28;20071;-85
2023/01/27 15:36:26;;;;;;;4.20;1.70;;;;;;;;;;5023267;28;20041;-84
2023/01/27 15:38:59;;;;;;;6.57;1.90;;;;;;;;;;5048715;28;20528;-82